Terminal Aerodrome Forecast
Issued by NWS Melbourne, FL

Home | Current Version | Previous Version | Text Only | Print | Product List | Glossary On
Versions: 1 2 3 4 5 6 7 8 9 10 11 12
000
FTUS42 KMLB 212300
TAFVRB
TAF
KVRB 212334Z 2200/2224 11010KT P6SM SCT250
     FM220600 20003KT P6SM FEW250
     FM221400 24006KT P6SM FEW035=

USA.gov is the U.S. government's official web portal to all federal, state and local government web resources and services.